createdAt,value
2019-02-19T07:39:14.575Z,27.67
2019-02-19T07:41:47.376Z,28.70
2019-02-19T07:44:20.414Z,25.90
2019-02-19T07:46:53.213Z,27.47
2019-02-19T07:49:26.032Z,28.83
2019-02-19T07:51:59.029Z,27.70
2019-02-19T07:54:32.932Z,26.77
2019-02-19T07:57:05.801Z,24.47
2019-02-19T07:59:38.726Z,24.63
2019-02-19T08:02:11.526Z,26.17
2019-02-19T08:04:44.462Z,26.27
2019-02-19T08:07:17.575Z,26.30
2019-02-19T08:09:50.473Z,27.03
2019-02-19T08:12:23.382Z,25.83
2019-02-19T08:14:56.134Z,27.00
2019-02-19T08:17:33.408Z,27.67
2019-02-19T08:20:03.574Z,27.60
2019-02-19T08:22:37.792Z,26.00
2019-02-19T08:25:10.765Z,27.83
2019-02-19T08:27:43.582Z,28.33
2019-02-19T08:30:16.577Z,28.77
2019-02-19T08:32:49.829Z,26.80
2019-02-19T08:35:22.658Z,27.73
2019-02-19T08:37:55.627Z,27.60
2019-02-19T08:40:28.411Z,28.13
2019-02-19T08:43:01.307Z,27.93
2019-02-19T08:45:34.566Z,27.37
2019-02-19T08:48:07.655Z,27.73
2019-02-19T08:50:40.493Z,28.97
2019-02-19T08:53:13.208Z,29.33
2019-02-19T08:55:46.185Z,30.67
2019-02-19T08:58:19.152Z,28.33
2019-02-19T09:00:52.234Z,29.57
2019-02-19T09:03:25.530Z,31.57
2019-02-19T09:05:58.606Z,30.40
2019-02-19T09:08:31.721Z,31.00
2019-02-19T09:11:04.908Z,32.00
2019-02-19T09:13:37.839Z,32.97
2019-02-19T09:16:10.863Z,32.57
2019-02-19T09:18:43.977Z,29.77
2019-02-19T09:21:16.918Z,31.27
2019-02-19T09:23:49.886Z,31.23
2019-02-19T09:26:23.092Z,30.90
2019-02-19T09:28:56.083Z,28.07
2019-02-19T09:31:30.567Z,29.33
2019-02-19T09:34:03.667Z,30.53
2019-02-19T09:36:36.729Z,29.30
2019-02-19T09:39:10.136Z,26.83
2019-02-19T09:41:43.175Z,24.10
2019-02-19T09:44:16.166Z,27.17
2019-02-19T09:46:49.599Z,22.60
2019-02-19T09:49:22.764Z,24.50
2019-02-19T09:51:55.924Z,24.67
2019-02-19T09:54:29.377Z,24.57
2019-02-19T09:57:02.574Z,23.80
2019-02-19T09:59:35.594Z,22.23
2019-02-19T10:02:09.054Z,18.13
2019-02-19T10:04:42.010Z,19.97
2019-02-19T10:07:14.969Z,20.63
2019-02-19T10:09:48.092Z,19.20
2019-02-19T10:12:20.998Z,19.60
2019-02-19T10:14:53.921Z,19.53
2019-02-19T10:17:26.725Z,21.63
2019-02-19T10:19:59.854Z,19.67
2019-02-19T10:22:32.943Z,21.60
2019-02-19T10:25:06.629Z,19.83
2019-02-19T10:27:39.495Z,19.00
2019-02-19T10:30:15.208Z,18.97
2019-02-19T10:32:48.047Z,16.47
2019-02-19T10:35:21.551Z,16.93
2019-02-19T10:37:54.488Z,15.57
2019-02-19T10:40:27.589Z,15.00
2019-02-19T10:43:00.683Z,17.23
2019-02-19T10:45:33.833Z,19.30
2019-02-19T10:48:06.782Z,18.43
2019-02-19T10:50:40.517Z,17.57
2019-02-19T10:53:13.393Z,20.27
2019-02-19T10:55:46.377Z,20.73
2019-02-19T10:58:22.922Z,22.20
2019-02-19T11:00:55.525Z,22.23
2019-02-19T11:03:28.563Z,21.80
2019-02-19T11:06:01.702Z,22.97
2019-02-19T11:08:35.056Z,22.60
2019-02-19T11:11:08.570Z,21.40
2019-02-19T11:13:41.541Z,19.93
2019-02-19T11:16:14.532Z,21.10
2019-02-19T11:18:47.792Z,20.23
2019-02-19T11:21:20.959Z,19.00
2019-02-19T11:23:54.081Z,19.30
2019-02-19T11:26:27.207Z,19.10
2019-02-19T11:29:00.316Z,19.53
2019-02-19T11:31:33.712Z,19.43
2019-02-19T11:34:07.044Z,20.93
2019-02-19T11:36:40.166Z,18.70
2019-02-19T11:39:15.107Z,19.87
2019-02-19T11:41:48.201Z,19.40
2019-02-19T11:44:21.403Z,19.47
2019-02-19T11:46:54.276Z,20.13
2019-02-19T11:49:27.757Z,19.80
2019-02-19T11:52:00.927Z,19.17
2019-02-19T11:54:34.151Z,20.00
2019-02-19T11:57:07.388Z,19.13
2019-02-19T11:59:40.776Z,19.60
2019-02-19T12:02:16.693Z,22.27
2019-02-19T12:04:49.734Z,22.10
2019-02-19T12:07:24.134Z,20.50
2019-02-19T12:09:57.186Z,23.47
2019-02-19T12:12:30.144Z,23.23
2019-02-19T12:15:03.268Z,22.13
2019-02-19T12:17:36.343Z,20.50
2019-02-19T12:20:10.031Z,21.97
2019-02-19T12:22:43.215Z,22.10
2019-02-19T12:25:16.533Z,20.60
2019-02-19T12:27:49.605Z,23.33
2019-02-19T12:30:23.031Z,23.07
2019-02-19T12:32:56.306Z,21.53
2019-02-19T12:35:29.320Z,19.47
2019-02-19T12:38:02.760Z,19.77
2019-02-19T12:40:37.381Z,19.93
2019-02-19T12:43:12.186Z,20.33
2019-02-19T12:45:45.449Z,20.60
2019-02-19T12:48:18.687Z,19.97
2019-02-19T12:50:52.386Z,19.70
2019-02-19T12:53:25.687Z,17.73
2019-02-19T12:55:58.941Z,18.63
2019-02-19T12:58:31.973Z,17.70
2019-02-19T13:01:06.379Z,17.00
2019-02-19T13:03:42.941Z,16.63
2019-02-19T13:06:19.687Z,16.40
2019-02-19T13:08:53.038Z,16.30
2019-02-19T13:11:26.535Z,16.60
2019-02-19T13:14:00.065Z,16.13
2019-02-19T13:16:34.597Z,16.17
2019-02-19T13:19:08.268Z,15.23
2019-02-19T13:21:41.774Z,15.40
2019-02-19T13:24:14.993Z,15.80
2019-02-19T13:26:50.294Z,16.17
2019-02-19T13:29:23.753Z,15.50
2019-02-19T13:31:56.903Z,14.63
2019-02-19T13:34:30.356Z,14.80
2019-02-19T13:37:03.603Z,15.23
2019-02-19T13:39:36.875Z,14.50
2019-02-19T13:42:10.017Z,14.33
2019-02-19T13:44:43.441Z,14.63
2019-02-19T13:47:16.694Z,13.33
2019-02-19T13:49:49.910Z,14.47
2019-02-19T13:52:53.964Z,14.80
2019-02-19T13:55:32.323Z,13.73
2019-02-19T13:58:05.681Z,13.87
2019-02-19T14:00:41.042Z,12.67
2019-02-19T14:03:14.141Z,12.30
2019-02-19T14:05:47.385Z,11.83
2019-02-19T14:08:20.418Z,13.43
2019-02-19T14:10:53.454Z,12.53
2019-02-19T14:13:27.298Z,11.70
2019-02-19T14:16:17.389Z,12.00
2019-02-19T14:19:04.562Z,11.37
2019-02-19T14:22:02.871Z,11.40
2019-02-19T14:24:47.769Z,11.90
2019-02-19T14:27:39.779Z,11.30
2019-02-19T14:30:36.085Z,11.27
2019-02-19T14:33:30.827Z,10.70
2019-02-19T14:36:30.035Z,9.80
2019-02-19T14:39:34.310Z,11.00
2019-02-19T14:42:25.320Z,10.73
2019-02-19T14:45:23.332Z,11.27
2019-02-19T14:48:15.613Z,14.80
2019-02-19T14:51:17.845Z,14.97
2019-02-19T14:54:03.012Z,12.37
2019-02-19T14:56:54.835Z,11.73
2019-02-19T14:59:49.883Z,12.73
2019-02-19T15:02:40.540Z,14.67
2019-02-19T15:05:29.736Z,13.50
2019-02-19T15:08:21.388Z,11.97
2019-02-19T15:11:07.481Z,16.33
2019-02-19T15:14:05.703Z,16.30
2019-02-19T15:17:03.949Z,15.03
2019-02-19T15:19:55.346Z,13.80
2019-02-19T15:22:48.076Z,34.90
2019-02-19T15:25:39.083Z,11.50
2019-02-19T15:28:36.902Z,10.13
2019-02-19T15:31:27.740Z,9.73
2019-02-19T15:34:19.333Z,9.83
2019-02-19T15:37:17.896Z,10.70
2019-02-19T15:40:19.484Z,10.60
2019-02-19T15:43:16.573Z,9.40
2019-02-19T15:46:17.841Z,9.60
2019-02-19T15:49:18.238Z,10.43
2019-02-19T15:52:12.919Z,11.67
2019-02-19T15:55:23.700Z,12.20
2019-02-19T15:58:31.213Z,12.07
2019-02-19T16:01:35.249Z,11.40
2019-02-19T16:04:23.019Z,16.97
2019-02-19T16:07:14.630Z,23.63
2019-02-19T16:10:04.411Z,33.50
2019-02-19T16:13:02.824Z,18.60
2019-02-19T16:16:03.854Z,18.00
2019-02-19T16:19:05.578Z,11.53
2019-02-19T16:21:53.071Z,11.63
2019-02-19T16:24:34.058Z,12.60
2019-02-19T16:27:26.271Z,20.17
2019-02-19T16:30:18.029Z,21.80
2019-02-19T16:33:19.541Z,18.73
2019-02-19T16:36:10.587Z,19.90
2019-02-19T16:39:05.936Z,15.77
2019-02-19T16:41:48.264Z,17.57
2019-02-19T16:44:37.412Z,16.63
2019-02-19T16:47:29.525Z,14.20
2019-02-19T16:50:17.348Z,13.30
2019-02-19T16:53:08.253Z,13.33
2019-02-19T16:55:51.436Z,13.47
2019-02-19T16:58:46.819Z,12.47
2019-02-19T17:01:29.732Z,12.43
2019-02-19T17:04:17.066Z,12.20
2019-02-19T17:07:05.437Z,11.77
2019-02-19T17:10:06.702Z,11.03
2019-02-19T17:13:04.651Z,11.93
2019-02-19T17:15:59.533Z,11.77
2019-02-19T17:18:49.950Z,12.30
2019-02-19T17:21:45.385Z,12.30
2019-02-19T17:24:49.524Z,11.77
2019-02-19T17:27:38.480Z,13.87
2019-02-19T17:30:49.479Z,13.60
2019-02-19T17:33:42.919Z,14.00
2019-02-19T17:36:49.956Z,11.87
2019-02-19T17:39:39.914Z,11.20
2019-02-19T17:42:32.362Z,11.23
2019-02-19T17:45:34.002Z,11.23
2019-02-19T17:48:25.159Z,10.60
2019-02-19T17:51:23.435Z,13.43
2019-02-19T17:54:13.347Z,19.43
2019-02-19T17:56:55.988Z,16.13
2019-02-19T17:59:51.627Z,25.03
2019-02-19T18:02:44.933Z,21.77
2019-02-19T18:05:42.771Z,23.53
2019-02-19T18:08:33.102Z,24.20
2019-02-19T18:11:26.434Z,24.53
2019-02-19T18:14:28.578Z,24.03
2019-02-19T18:17:39.419Z,21.00
2019-02-19T18:20:13.093Z,22.03
2019-02-19T18:22:48.093Z,24.07
2019-02-19T18:25:21.552Z,25.00
2019-02-19T18:27:54.652Z,25.20
2019-02-19T18:30:27.911Z,24.10
2019-02-19T18:33:00.868Z,21.03
2019-02-19T18:35:34.287Z,19.60
2019-02-19T18:38:07.327Z,21.40
2019-02-19T18:40:40.537Z,23.73
2019-02-19T18:43:13.721Z,21.60
2019-02-19T18:45:46.774Z,21.23
2019-02-19T18:48:20.352Z,19.30
2019-02-19T18:50:58.435Z,18.90
2019-02-19T18:53:28.826Z,25.17
2019-02-19T18:56:01.924Z,20.37
2019-02-19T18:58:35.173Z,18.80
2019-02-19T19:01:08.803Z,20.83
2019-02-19T19:03:42.199Z,24.00
2019-02-19T19:06:15.413Z,24.47
2019-02-19T19:08:48.701Z,21.97
2019-02-19T19:11:23.713Z,29.43
2019-02-19T19:13:56.709Z,23.90
2019-02-19T19:16:30.360Z,24.67
2019-02-19T19:19:03.733Z,19.83
2019-02-19T19:21:37.209Z,18.43
2019-02-19T19:24:10.872Z,18.63
2019-02-19T19:26:44.711Z,17.83
2019-02-19T19:29:17.861Z,17.93
2019-02-19T19:31:51.494Z,19.80
2019-02-19T19:34:26.361Z,16.83
2019-02-19T19:37:00.580Z,14.77
2019-02-19T19:39:34.693Z,16.23
2019-02-19T19:42:08.489Z,15.23
2019-02-19T19:44:41.623Z,14.80
2019-02-19T19:47:15.360Z,15.33
2019-02-19T19:49:50.282Z,16.13
2019-02-19T19:52:25.625Z,15.23
2019-02-19T19:54:59.673Z,18.23
2019-02-19T19:57:33.635Z,16.60
2019-02-19T20:00:07.772Z,17.33
2019-02-19T20:02:41.606Z,15.20
2019-02-19T20:05:32.251Z,15.53
2019-02-19T20:08:05.948Z,14.87
2019-02-19T20:10:39.880Z,15.37
2019-02-19T20:13:14.878Z,15.50
2019-02-19T20:15:48.477Z,16.77
2019-02-19T20:18:21.687Z,17.47
2019-02-19T20:20:55.055Z,18.43
2019-02-19T20:23:28.367Z,17.60
2019-02-19T20:26:01.785Z,18.60
2019-02-19T20:28:34.690Z,16.73
2019-02-19T20:31:09.284Z,17.77
2019-02-19T20:33:42.515Z,18.57
2019-02-19T20:36:15.682Z,18.13
2019-02-19T20:38:48.679Z,17.07
2019-02-19T20:41:21.748Z,18.63
2019-02-19T20:43:57.830Z,21.50
2019-02-19T20:46:31.098Z,19.30
2019-02-19T20:49:04.445Z,25.93
2019-02-19T20:51:37.418Z,19.20
2019-02-19T20:54:13.910Z,19.93
2019-02-19T20:56:47.139Z,19.33
2019-02-19T20:59:20.053Z,18.80
2019-02-19T21:01:53.432Z,19.60
2019-02-19T21:04:26.654Z,18.90
2019-02-19T21:06:59.929Z,19.70
2019-02-19T21:09:43.108Z,21.73
2019-02-19T21:12:07.842Z,20.83
2019-02-19T21:14:41.024Z,20.90
2019-02-19T21:17:14.320Z,19.93
2019-02-19T21:19:47.458Z,20.77
2019-02-19T21:22:20.569Z,20.97
2019-02-19T21:24:53.453Z,21.37
2019-02-19T21:27:26.827Z,20.47
2019-02-19T21:29:59.856Z,20.13
2019-02-19T21:32:32.990Z,19.60
2019-02-19T21:35:06.086Z,19.33
2019-02-19T21:37:39.193Z,20.73
2019-02-19T21:40:12.641Z,19.93
2019-02-19T21:42:45.711Z,18.73
2019-02-19T21:45:18.876Z,17.97
2019-02-19T21:47:52.301Z,17.80
2019-02-19T21:50:25.660Z,16.93
2019-02-19T21:52:58.861Z,17.03
2019-02-19T21:55:32.518Z,18.17
2019-02-19T21:58:05.596Z,16.63
2019-02-19T22:00:38.703Z,16.70
2019-02-19T22:03:11.855Z,16.67
2019-02-19T22:05:44.941Z,16.03
2019-02-19T22:08:18.417Z,16.07
2019-02-19T22:10:51.592Z,16.43
2019-02-19T22:13:25.221Z,16.83
2019-02-19T22:15:58.686Z,15.90
2019-02-19T22:18:31.850Z,15.77
2019-02-19T22:21:10.708Z,15.33
2019-02-19T22:23:43.711Z,16.33
2019-02-19T22:26:16.755Z,16.30
2019-02-19T22:28:49.965Z,17.30
2019-02-19T22:31:23.499Z,16.40
2019-02-19T22:33:57.059Z,16.47
2019-02-19T22:36:30.514Z,14.83
2019-02-19T22:39:06.287Z,16.93
2019-02-19T22:41:39.528Z,16.40
2019-02-19T22:44:12.875Z,15.07
2019-02-19T22:46:45.947Z,16.13
2019-02-19T22:49:19.191Z,16.67
2019-02-19T22:51:52.369Z,17.37
2019-02-19T22:54:49.002Z,18.60
2019-02-19T22:57:22.603Z,16.23
2019-02-19T22:59:55.761Z,18.73
2019-02-19T23:02:31.296Z,17.23
2019-02-19T23:05:04.802Z,16.77
2019-02-19T23:07:38.225Z,16.50
2019-02-19T23:10:11.237Z,17.03
2019-02-19T23:12:44.492Z,18.90
2019-02-19T23:15:18.398Z,16.63
2019-02-19T23:17:51.765Z,16.63
2019-02-19T23:20:24.823Z,15.80
2019-02-19T23:22:58.194Z,17.07
2019-02-19T23:25:31.421Z,16.90
2019-02-19T23:28:04.512Z,16.30
2019-02-19T23:30:37.835Z,16.43
2019-02-19T23:33:11.596Z,14.60
2019-02-19T23:35:49.693Z,16.53
2019-02-19T23:38:23.309Z,15.67
2019-02-19T23:40:56.891Z,15.33
2019-02-19T23:43:30.753Z,15.90
2019-02-19T23:46:04.652Z,16.23
2019-02-19T23:48:38.452Z,15.27
2019-02-19T23:51:11.809Z,14.73
2019-02-19T23:53:45.002Z,13.97
2019-02-19T23:56:18.313Z,14.63
2019-02-19T23:58:51.524Z,13.50
